createdAt,value
2022-09-28T00:01:08.522Z,2.03
2022-09-28T00:03:37.006Z,1.90
2022-09-28T00:06:05.883Z,1.77
2022-09-28T00:08:34.947Z,2.03
2022-09-28T00:11:03.641Z,1.92
2022-09-28T00:13:33.398Z,2.00
2022-09-28T00:16:05.387Z,1.70
2022-09-28T00:18:33.904Z,1.70
2022-09-28T00:21:03.362Z,1.95
2022-09-28T00:23:31.774Z,1.90
2022-09-28T00:26:03.305Z,1.92
2022-09-28T00:28:33.153Z,1.70
2022-09-28T00:31:01.979Z,1.70
2022-09-28T00:33:30.374Z,1.85
2022-09-28T00:35:59.114Z,1.98
2022-09-28T00:38:28.355Z,1.60
2022-09-28T00:40:56.991Z,1.60
2022-09-28T00:43:26.297Z,1.80
2022-09-28T00:45:58.348Z,1.70
2022-09-28T00:48:29.369Z,1.70
2022-09-28T00:50:58.564Z,1.75
2022-09-28T00:53:28.156Z,1.92
2022-09-28T00:55:57.274Z,1.98
2022-09-28T00:58:28.184Z,2.10
2022-09-28T01:00:58.906Z,1.98
2022-09-28T01:03:27.562Z,2.20
2022-09-28T01:05:56.717Z,1.80
2022-09-28T01:08:27.728Z,2.30
2022-09-28T01:10:56.298Z,2.53
2022-09-28T01:13:25.212Z,1.90
2022-09-28T01:15:56.982Z,2.13
2022-09-28T01:18:32.577Z,2.17
2022-09-28T01:21:02.680Z,2.28
2022-09-28T01:23:38.568Z,2.30
2022-09-28T01:26:28.557Z,2.33
2022-09-28T01:29:02.231Z,2.65
2022-09-28T01:31:33.058Z,2.08
2022-09-28T01:34:02.741Z,2.20
2022-09-28T01:36:35.121Z,2.72
2022-09-28T01:39:04.882Z,3.00
2022-09-28T01:41:38.013Z,3.25
2022-09-28T01:44:08.649Z,3.05
2022-09-28T01:46:41.247Z,3.10
2022-09-28T01:49:11.548Z,2.95
2022-09-28T01:51:42.728Z,3.50
2022-09-28T01:54:13.897Z,3.72
2022-09-28T01:56:49.406Z,3.70
2022-09-28T01:59:19.910Z,3.72
2022-09-28T02:01:50.976Z,3.72
2022-09-28T02:04:20.483Z,3.58
2022-09-28T02:06:52.817Z,4.03
2022-09-28T02:09:23.504Z,3.58
2022-09-28T02:11:55.867Z,3.60
2022-09-28T02:14:25.238Z,4.50
2022-09-28T02:16:54.934Z,4.22
2022-09-28T02:19:29.076Z,4.25
2022-09-28T02:22:00.973Z,4.68
2022-09-28T02:24:33.339Z,4.60
2022-09-28T02:27:05.227Z,4.25
2022-09-28T02:29:35.870Z,4.03
2022-09-28T02:32:04.139Z,4.38
2022-09-28T02:34:32.855Z,3.80
2022-09-28T02:37:01.710Z,3.67
2022-09-28T02:39:30.193Z,4.20
2022-09-28T02:42:03.601Z,3.28
2022-09-28T02:44:41.052Z,2.05
2022-09-28T02:47:17.996Z,1.75
2022-09-28T02:49:48.705Z,1.30
2022-09-28T02:52:24.770Z,0.93
2022-09-28T02:55:04.795Z,0.90
2022-09-28T02:57:39.891Z,0.70
2022-09-28T03:00:11.856Z,0.70
2022-09-28T03:02:47.054Z,0.50
2022-09-28T03:05:17.912Z,0.50
2022-09-28T03:07:48.397Z,0.52
2022-09-28T03:10:18.630Z,0.70
2022-09-28T03:12:48.117Z,0.70
2022-09-28T03:15:23.424Z,0.68
2022-09-28T03:17:52.455Z,0.63
2022-09-28T03:20:20.982Z,0.63
2022-09-28T03:23:12.315Z,0.52
2022-09-28T03:25:37.533Z,0.60
2022-09-28T03:28:05.973Z,0.47
2022-09-28T03:30:40.205Z,0.57
2022-09-28T03:33:08.786Z,0.90
2022-09-28T03:35:37.310Z,0.73
2022-09-28T03:38:05.615Z,0.95
2022-09-28T03:40:36.135Z,0.50
2022-09-28T03:43:04.606Z,0.40
2022-09-28T03:45:33.020Z,0.60
2022-09-28T03:48:03.109Z,0.60
2022-09-28T03:50:31.427Z,0.50
2022-09-28T03:53:03.313Z,0.60
2022-09-28T03:55:32.236Z,0.40
2022-09-28T03:58:00.772Z,0.40
2022-09-28T04:00:29.519Z,0.60
2022-09-28T04:02:58.764Z,0.50
2022-09-28T04:05:28.589Z,0.60
2022-09-28T04:07:57.649Z,0.52
2022-09-28T04:10:26.053Z,0.60
2022-09-28T04:12:56.425Z,0.60
2022-09-28T04:15:24.894Z,0.68
2022-09-28T04:17:53.259Z,0.70
2022-09-28T04:20:47.956Z,1.00
2022-09-28T04:23:16.397Z,1.08
2022-09-28T04:25:48.547Z,1.00
2022-09-28T04:28:31.171Z,0.80
2022-09-28T04:30:59.868Z,0.70
2022-09-28T04:33:28.126Z,0.77
2022-09-28T04:35:57.739Z,0.95
2022-09-28T04:38:48.369Z,0.88
2022-09-28T04:41:14.302Z,0.90
2022-09-28T04:43:42.575Z,1.15
2022-09-28T04:46:11.044Z,1.17
2022-09-28T04:48:45.551Z,0.90
2022-09-28T04:51:33.769Z,1.25
2022-09-28T04:54:02.147Z,1.20
2022-09-28T04:56:30.421Z,1.52
2022-09-28T04:58:58.801Z,1.27
2022-09-28T05:01:27.372Z,1.35
2022-09-28T05:03:58.692Z,1.70
2022-09-28T05:06:54.073Z,1.65
2022-09-28T05:09:22.349Z,2.00
2022-09-28T05:11:52.944Z,2.60
2022-09-28T05:14:23.212Z,2.13
2022-09-28T05:16:52.514Z,1.80
2022-09-28T05:19:23.360Z,2.03
2022-09-28T05:21:54.657Z,1.65
2022-09-28T05:24:22.940Z,1.65
2022-09-28T05:26:52.965Z,1.70
2022-09-28T05:29:21.552Z,2.00
2022-09-28T05:32:12.547Z,1.98
2022-09-28T05:34:46.652Z,1.80
2022-09-28T05:37:24.867Z,1.75
2022-09-28T05:39:53.143Z,1.70
2022-09-28T05:42:21.451Z,1.50
2022-09-28T05:44:49.691Z,1.92
2022-09-28T05:47:18.551Z,2.25
2022-09-28T05:49:46.850Z,1.80
2022-09-28T05:52:15.647Z,1.65
2022-09-28T05:54:45.325Z,1.70
2022-09-28T05:57:13.720Z,1.90
2022-09-28T05:59:42.547Z,1.73
2022-09-28T06:02:12.029Z,1.67
2022-09-28T06:04:40.694Z,1.95
2022-09-28T06:07:09.066Z,1.80
2022-09-28T06:09:37.361Z,1.40
2022-09-28T06:12:35.151Z,1.60
2022-09-28T06:15:09.446Z,1.40
2022-09-28T06:17:37.763Z,1.27
2022-09-28T06:20:24.431Z,1.50
2022-09-28T06:22:58.471Z,1.50
2022-09-28T06:25:27.634Z,1.40
2022-09-28T06:27:58.397Z,1.38
2022-09-28T06:30:27.845Z,1.52
2022-09-28T06:32:56.901Z,1.40
2022-09-28T06:35:26.023Z,1.33
2022-09-28T06:37:54.704Z,1.90
2022-09-28T06:40:23.535Z,1.67
2022-09-28T06:42:59.868Z,1.73
2022-09-28T06:45:53.266Z,1.30
2022-09-28T06:48:40.636Z,2.10
2022-09-28T06:51:12.962Z,1.50
2022-09-28T06:54:01.547Z,1.80
2022-09-28T06:56:41.037Z,2.03
2022-09-28T06:59:10.689Z,1.80
2022-09-28T07:01:40.414Z,1.40
2022-09-28T07:04:21.299Z,1.42
2022-09-28T07:07:09.553Z,1.75
2022-09-28T07:10:00.328Z,1.27
2022-09-28T07:12:44.998Z,1.30
2022-09-28T07:15:26.963Z,1.33
2022-09-28T07:18:02.845Z,1.00
2022-09-28T07:20:34.506Z,1.10
2022-09-28T07:23:18.563Z,1.30
2022-09-28T07:26:08.742Z,1.20
2022-09-28T07:28:58.012Z,1.08
2022-09-28T07:31:39.550Z,6.60
2022-09-28T07:34:23.479Z,5.72
2022-09-28T07:37:02.259Z,1.00
2022-09-28T07:39:30.775Z,1.10
2022-09-28T07:42:02.509Z,1.58
2022-09-28T07:44:32.258Z,1.40
2022-09-28T07:47:02.545Z,1.40
2022-09-28T07:49:51.168Z,0.80
2022-09-28T07:52:51.863Z,0.90
2022-09-28T07:55:40.409Z,1.30
2022-09-28T07:58:33.512Z,0.70
2022-09-28T08:01:20.096Z,3.72
2022-09-28T08:03:50.357Z,1.80
2022-09-28T08:06:18.853Z,1.20
2022-09-28T08:08:47.336Z,0.85
2022-09-28T08:11:19.357Z,0.75
2022-09-28T08:14:06.515Z,0.90
2022-09-28T08:16:55.051Z,1.27
2022-09-28T08:20:06.419Z,1.30
2022-09-28T08:22:34.769Z,0.90
2022-09-28T08:25:03.116Z,1.35
2022-09-28T08:27:31.433Z,2.33
2022-09-28T08:29:59.815Z,0.90
2022-09-28T08:32:57.253Z,0.90
2022-09-28T08:35:58.472Z,0.80
2022-09-28T08:38:34.874Z,0.80
2022-09-28T08:41:35.185Z,0.80
2022-09-28T08:44:15.787Z,1.50
2022-09-28T08:47:35.008Z,1.17
2022-09-28T08:50:19.791Z,1.00
2022-09-28T08:53:15.350Z,0.93
2022-09-28T08:56:09.212Z,0.98
2022-09-28T08:58:39.875Z,0.90
2022-09-28T09:01:11.746Z,1.00
2022-09-28T09:03:41.880Z,1.08
2022-09-28T09:06:35.013Z,2.05
2022-09-28T09:09:32.026Z,1.40
2022-09-28T09:12:04.329Z,0.95
2022-09-28T09:14:42.350Z,1.60
2022-09-28T09:17:18.374Z,0.90
2022-09-28T09:20:27.151Z,1.08
2022-09-28T09:23:06.975Z,0.70
2022-09-28T09:25:42.297Z,1.95
2022-09-28T09:28:36.105Z,0.98
2022-09-28T09:31:09.636Z,0.65
2022-09-28T09:33:51.994Z,0.88
2022-09-28T09:37:00.866Z,0.90
2022-09-28T09:39:52.976Z,1.88
2022-09-28T09:42:58.009Z,1.33
2022-09-28T09:45:54.449Z,0.70
2022-09-28T09:48:38.198Z,0.98
2022-09-28T09:51:15.262Z,0.63
2022-09-28T09:53:46.481Z,2.38
2022-09-28T09:56:17.014Z,3.10
2022-09-28T09:59:04.461Z,1.00
2022-09-28T10:01:39.925Z,1.60
2022-09-28T10:04:22.279Z,3.00
2022-09-28T10:06:52.277Z,1.30
2022-09-28T10:09:24.882Z,1.40
2022-09-28T10:11:53.882Z,1.60
2022-09-28T10:14:25.064Z,1.40
2022-09-28T10:17:04.089Z,0.70
2022-09-28T10:19:51.274Z,0.60
2022-09-28T10:22:38.367Z,0.80
2022-09-28T10:25:13.342Z,0.57
2022-09-28T10:27:44.299Z,0.88
2022-09-28T10:30:19.791Z,0.73
2022-09-28T10:32:49.077Z,0.70
2022-09-28T10:35:23.417Z,1.55
2022-09-28T10:37:59.168Z,0.70
2022-09-28T10:40:44.409Z,0.70
2022-09-28T10:43:22.564Z,0.70
2022-09-28T10:46:01.528Z,0.60
2022-09-28T10:48:31.131Z,0.82
2022-09-28T10:51:01.012Z,0.60
2022-09-28T10:53:29.365Z,0.65
2022-09-28T10:56:20.879Z,0.82
2022-09-28T10:58:52.489Z,0.68
2022-09-28T11:01:32.975Z,5.60
2022-09-28T11:04:02.947Z,4.68
2022-09-28T11:06:32.681Z,4.72
2022-09-28T11:09:02.131Z,4.78
2022-09-28T11:11:31.401Z,0.70
2022-09-28T11:14:06.287Z,0.70
2022-09-28T11:16:38.498Z,1.05
2022-09-28T11:19:08.127Z,1.30
2022-09-28T11:21:43.185Z,0.90
2022-09-28T11:24:20.106Z,0.65
2022-09-28T11:26:52.484Z,0.80
2022-09-28T11:29:26.670Z,0.57
2022-09-28T11:32:16.329Z,0.50
2022-09-28T11:35:04.518Z,0.50
2022-09-28T11:37:40.016Z,0.60
2022-09-28T11:40:16.115Z,0.50
2022-09-28T11:42:50.242Z,0.95
2022-09-28T11:45:25.977Z,1.40
2022-09-28T11:47:59.099Z,0.50
2022-09-28T11:50:35.234Z,0.80
2022-09-28T11:53:10.930Z,1.15
2022-09-28T11:55:42.347Z,0.73
2022-09-28T11:58:13.582Z,2.45
2022-09-28T12:00:45.637Z,2.85
2022-09-28T12:03:17.905Z,1.25
2022-09-28T12:05:48.845Z,0.80
2022-09-28T12:08:21.357Z,1.13
2022-09-28T12:11:19.899Z,0.90
2022-09-28T12:14:13.181Z,1.15
2022-09-28T12:17:04.968Z,0.85
2022-09-28T12:19:35.203Z,1.65
2022-09-28T12:22:06.856Z,2.33
2022-09-28T12:24:38.352Z,0.80
2022-09-28T12:27:09.173Z,0.90
2022-09-28T12:29:41.186Z,0.90
2022-09-28T12:32:12.976Z,0.60
2022-09-28T12:34:44.041Z,0.35
2022-09-28T12:37:25.436Z,0.75
2022-09-28T12:39:59.817Z,0.60
2022-09-28T12:42:35.677Z,0.60
2022-09-28T12:45:12.963Z,0.82
2022-09-28T12:47:52.762Z,0.60
2022-09-28T12:50:49.934Z,0.70
2022-09-28T12:53:26.699Z,0.50
2022-09-28T12:55:59.815Z,0.65
2022-09-28T12:58:36.569Z,0.70
2022-09-28T13:01:11.489Z,0.77
2022-09-28T13:03:47.328Z,0.60
2022-09-28T13:06:20.333Z,0.77
2022-09-28T13:08:53.102Z,0.80
2022-09-28T13:11:24.931Z,1.10
2022-09-28T13:13:58.025Z,0.80
2022-09-28T13:16:30.483Z,0.57
2022-09-28T13:19:03.468Z,0.50
2022-09-28T13:21:36.316Z,0.40
2022-09-28T13:24:21.028Z,0.32
2022-09-28T13:26:55.356Z,0.40
2022-09-28T13:29:24.090Z,0.63
2022-09-28T13:31:54.406Z,0.40
2022-09-28T13:34:24.057Z,0.60
2022-09-28T13:37:20.870Z,0.50
2022-09-28T13:39:52.112Z,0.60
2022-09-28T13:42:29.188Z,0.80
2022-09-28T13:45:11.699Z,0.60
2022-09-28T13:47:45.605Z,1.10
2022-09-28T13:50:19.496Z,0.60
2022-09-28T13:52:51.013Z,0.52
2022-09-28T13:55:27.832Z,0.50
2022-09-28T13:57:58.223Z,0.50
2022-09-28T14:00:28.738Z,0.43
2022-09-28T14:03:01.408Z,0.50
2022-09-28T14:05:50.793Z,0.70
2022-09-28T14:08:28.911Z,0.60
2022-09-28T14:10:57.945Z,1.00
2022-09-28T14:13:44.835Z,0.57
2022-09-28T14:16:22.704Z,0.70
2022-09-28T14:18:52.033Z,0.57
2022-09-28T14:21:24.804Z,0.68
2022-09-28T14:24:08.823Z,0.68
2022-09-28T14:26:57.850Z,0.52
2022-09-28T14:29:29.149Z,0.80
2022-09-28T14:31:58.633Z,0.50
2022-09-28T14:34:28.653Z,0.70
2022-09-28T14:37:13.850Z,0.60
2022-09-28T14:40:03.219Z,0.73
2022-09-28T14:42:31.745Z,0.50
2022-09-28T14:45:18.993Z,0.77
2022-09-28T14:48:05.623Z,1.10
2022-09-28T14:50:33.951Z,0.60
2022-09-28T14:53:05.707Z,0.90
2022-09-28T14:55:40.583Z,0.75
2022-09-28T14:58:17.113Z,0.77
2022-09-28T15:00:45.980Z,0.63
2022-09-28T15:03:14.952Z,0.60
2022-09-28T15:05:46.898Z,1.00
2022-09-28T15:08:15.375Z,1.20
2022-09-28T15:10:48.449Z,1.20
2022-09-28T15:13:21.752Z,0.82
2022-09-28T15:15:51.506Z,1.20
2022-09-28T15:18:50.232Z,0.90
2022-09-28T15:21:18.963Z,0.70
2022-09-28T15:23:47.939Z,1.02
2022-09-28T15:26:27.324Z,1.10
2022-09-28T15:28:55.994Z,1.02
2022-09-28T15:31:25.529Z,1.83
2022-09-28T15:34:12.012Z,2.67
2022-09-28T15:36:41.395Z,3.40
2022-09-28T15:39:14.122Z,2.22
2022-09-28T15:41:44.981Z,1.50
2022-09-28T15:44:28.976Z,1.58
2022-09-28T15:47:06.429Z,2.03
2022-09-28T15:49:39.078Z,2.42
2022-09-28T15:52:07.609Z,2.15
2022-09-28T15:54:39.163Z,1.98
2022-09-28T15:57:29.044Z,2.10
2022-09-28T15:59:59.119Z,2.03
2022-09-28T16:02:27.509Z,2.22
2022-09-28T16:04:56.577Z,10.68
2022-09-28T16:07:27.466Z,4.53
2022-09-28T16:10:00.327Z,1.70
2022-09-28T16:12:32.417Z,2.15
2022-09-28T16:15:04.720Z,3.42
2022-09-28T16:17:34.038Z,2.90
2022-09-28T16:20:03.732Z,2.08
2022-09-28T16:22:33.451Z,3.25
2022-09-28T16:25:02.813Z,1.95
2022-09-28T16:27:40.684Z,1.85
2022-09-28T16:30:20.220Z,1.77
2022-09-28T16:32:51.679Z,1.40
2022-09-28T16:35:22.110Z,1.60
2022-09-28T16:37:56.360Z,1.30
2022-09-28T16:40:24.759Z,1.23
2022-09-28T16:42:56.096Z,1.10
2022-09-28T16:45:24.744Z,1.15
2022-09-28T16:47:53.450Z,1.25
2022-09-28T16:50:22.237Z,1.25
2022-09-28T16:53:09.325Z,1.52
2022-09-28T16:55:40.963Z,2.10
2022-09-28T16:58:10.984Z,1.98
2022-09-28T17:00:39.281Z,1.98
2022-09-28T17:03:13.311Z,1.40
2022-09-28T17:05:41.592Z,1.30
2022-09-28T17:08:14.604Z,1.40
2022-09-28T17:11:09.319Z,1.20
2022-09-28T17:13:36.007Z,0.95
2022-09-28T17:16:10.255Z,1.05
2022-09-28T17:18:39.026Z,1.05
2022-09-28T17:21:09.239Z,0.98
2022-09-28T17:23:37.507Z,0.70
2022-09-28T17:26:07.162Z,0.95
2022-09-28T17:28:37.683Z,0.80
2022-09-28T17:31:06.459Z,1.10
2022-09-28T17:33:34.755Z,1.20
2022-09-28T17:36:04.623Z,0.90
2022-09-28T17:38:34.506Z,1.00
2022-09-28T17:41:02.856Z,0.90
2022-09-28T17:43:31.335Z,0.90
2022-09-28T17:46:01.025Z,1.00
2022-09-28T17:48:29.392Z,1.00
2022-09-28T17:50:59.789Z,1.02
2022-09-28T17:53:28.434Z,1.10
2022-09-28T17:55:56.705Z,1.13
2022-09-28T17:58:24.953Z,1.20
2022-09-28T18:00:53.613Z,1.13
2022-09-28T18:03:24.011Z,3.30
2022-09-28T18:05:58.325Z,1.55
2022-09-28T18:08:26.624Z,1.20
2022-09-28T18:10:56.825Z,1.20
2022-09-28T18:13:25.173Z,1.08
2022-09-28T18:15:53.665Z,1.08
2022-09-28T18:18:23.683Z,1.27
2022-09-28T18:20:52.022Z,1.20
2022-09-28T18:23:20.396Z,3.30
2022-09-28T18:25:49.203Z,2.13
2022-09-28T18:28:17.546Z,1.42
2022-09-28T18:30:46.782Z,1.40
2022-09-28T18:33:15.661Z,1.40
2022-09-28T18:35:51.515Z,1.00
2022-09-28T18:38:20.157Z,1.50
2022-09-28T18:40:49.775Z,1.95
2022-09-28T18:43:18.110Z,1.70
2022-09-28T18:45:47.064Z,3.38
2022-09-28T18:48:15.388Z,2.05
2022-09-28T18:50:45.620Z,3.88
2022-09-28T18:53:13.972Z,5.07
2022-09-28T18:55:43.339Z,11.63
2022-09-28T18:58:12.645Z,5.30
2022-09-28T19:00:41.769Z,3.08
2022-09-28T19:03:14.287Z,2.13
2022-09-28T19:05:45.128Z,9.82
2022-09-28T19:08:13.441Z,3.80
2022-09-28T19:10:41.873Z,2.80
2022-09-28T19:13:10.304Z,1.83
2022-09-28T19:15:38.696Z,1.70
2022-09-28T19:18:07.134Z,1.80
2022-09-28T19:20:36.470Z,2.00
2022-09-28T19:23:06.150Z,2.10
2022-09-28T19:25:35.981Z,1.90
2022-09-28T19:28:04.313Z,1.40
2022-09-28T19:30:32.625Z,1.50
2022-09-28T19:33:00.931Z,1.27
2022-09-28T19:35:29.378Z,1.50
2022-09-28T19:37:57.690Z,1.85
2022-09-28T19:40:27.441Z,2.03
2022-09-28T19:42:55.769Z,1.60
2022-09-28T19:45:24.091Z,2.17
2022-09-28T19:47:55.146Z,1.80
2022-09-28T19:50:27.010Z,1.65
2022-09-28T19:52:56.973Z,1.40
2022-09-28T19:55:25.509Z,1.55
2022-09-28T19:57:56.274Z,1.60
2022-09-28T20:00:24.587Z,1.45
2022-09-28T20:02:52.986Z,1.55
2022-09-28T20:05:21.323Z,1.65
2022-09-28T20:07:49.627Z,1.58
2022-09-28T20:10:17.953Z,2.40
2022-09-28T20:12:46.261Z,2.25
2022-09-28T20:15:16.521Z,2.42
2022-09-28T20:17:44.796Z,2.08
2022-09-28T20:20:13.107Z,2.00
2022-09-28T20:22:43.495Z,2.10
2022-09-28T20:25:12.289Z,2.28
2022-09-28T20:27:40.633Z,2.08
2022-09-28T20:30:09.788Z,2.53
2022-09-28T20:32:39.418Z,2.28
2022-09-28T20:35:08.490Z,2.25
2022-09-28T20:37:36.778Z,1.90
2022-09-28T20:40:05.284Z,1.88
2022-09-28T20:42:33.689Z,2.20
2022-09-28T20:45:01.991Z,2.05
2022-09-28T20:47:30.253Z,1.98
2022-09-28T20:50:00.172Z,1.85
2022-09-28T20:52:28.505Z,1.70
2022-09-28T20:54:56.812Z,2.05
2022-09-28T20:57:25.573Z,2.53
2022-09-28T20:59:54.961Z,2.20
2022-09-28T21:02:23.525Z,2.88
2022-09-28T21:04:51.961Z,2.35
2022-09-28T21:07:22.287Z,2.50
2022-09-28T21:09:50.709Z,2.40
2022-09-28T21:12:19.163Z,2.28
2022-09-28T21:14:47.449Z,2.47
2022-09-28T21:17:15.770Z,2.42
2022-09-28T21:19:44.073Z,2.15
2022-09-28T21:22:12.375Z,2.70
2022-09-28T21:24:42.001Z,2.40
2022-09-28T21:27:10.275Z,2.30
2022-09-28T21:29:38.575Z,2.65
2022-09-28T21:32:08.064Z,2.92
2022-09-28T21:34:36.642Z,3.00
2022-09-28T21:37:04.928Z,3.00
2022-09-28T21:39:33.230Z,3.08
2022-09-28T21:42:02.886Z,3.40
2022-09-28T21:44:31.178Z,3.33
2022-09-28T21:46:59.509Z,2.78
2022-09-28T21:49:27.793Z,3.00
2022-09-28T21:51:56.071Z,2.80
2022-09-28T21:54:24.372Z,3.35
2022-09-28T21:56:52.674Z,2.85
2022-09-28T21:59:22.314Z,3.15
2022-09-28T22:01:50.644Z,3.05
2022-09-28T22:04:19.133Z,2.60
2022-09-28T22:06:47.504Z,2.95
2022-09-28T22:09:16.056Z,2.70
2022-09-28T22:11:44.350Z,2.83
2022-09-28T22:14:12.995Z,2.67
2022-09-28T22:16:43.018Z,2.58
2022-09-28T22:19:11.601Z,2.67
2022-09-28T22:21:40.039Z,3.03
2022-09-28T22:24:09.396Z,2.90
2022-09-28T22:26:39.315Z,3.20
2022-09-28T22:29:08.961Z,2.65
2022-09-28T22:31:38.186Z,2.85
2022-09-28T22:34:08.206Z,2.90
2022-09-28T22:36:36.833Z,3.13
2022-09-28T22:39:06.075Z,3.13
2022-09-28T22:41:35.433Z,2.95
2022-09-28T22:44:03.704Z,2.80
2022-09-28T22:46:32.800Z,3.10
2022-09-28T22:49:01.632Z,2.90
2022-09-28T22:51:31.785Z,3.10
2022-09-28T22:54:01.102Z,2.78
2022-09-28T22:56:29.663Z,2.53
2022-09-28T22:58:57.996Z,2.78
2022-09-28T23:01:27.297Z,2.50
2022-09-28T23:03:56.687Z,2.38
2022-09-28T23:06:25.920Z,2.95
2022-09-28T23:08:55.627Z,2.65
2022-09-28T23:11:24.171Z,2.83
2022-09-28T23:13:53.245Z,2.90
2022-09-28T23:16:23.495Z,2.72
2022-09-28T23:18:52.265Z,2.65
2022-09-28T23:21:21.301Z,3.00
2022-09-28T23:23:53.193Z,2.90
2022-09-28T23:26:23.472Z,3.33
2022-09-28T23:28:52.613Z,2.80
2022-09-28T23:31:22.087Z,2.97
2022-09-28T23:33:50.748Z,2.92
2022-09-28T23:36:19.119Z,3.17
2022-09-28T23:38:47.404Z,3.03
2022-09-28T23:41:15.726Z,2.83
2022-09-28T23:43:45.335Z,2.80
2022-09-28T23:46:20.346Z,2.40
2022-09-28T23:48:49.233Z,2.55
2022-09-28T23:51:17.605Z,2.88
2022-09-28T23:53:45.896Z,2.70
2022-09-28T23:56:14.398Z,3.10
2022-09-28T23:58:42.685Z,2.80
